Opasatika, Canada
Current Conditions -  °F | °C
As of 3:00 PM on Monday 24 Nov 2014 (Local Time) from CYYU Reporting Station
Light Snow Light Snow  
Wind Chill: 13°   Ceiling: 500
Heat Index: 27°   Visibility: 0.5mi
Dew Point: 25°   Wind: 18mph
Humidity: 93%   Direction: 350°N
Pressure: 28.98"   Gusts: 28mph
Location:  49.53°N, 82.87°W
Report Text: CYYU 242000Z 35016G24KT 1/2SM -SN DRSN OVC005 M03/M04 A2898 RMK SC8 VIS VRB 3/8 - 5/8 SLP823
Loading
Personal Weather Stations






























Interactive Weather Map New forecast layout! Learn more

10-Day Weather Forecast

Advertisements
Track Severe Weather on mobile